Time;durP1;ratioP1;P1;durP2;ratioP2;P2;SDS_P1;SDS_P2;PMS_P1;PMS_P2;Temp;Humidity;BMP_temperature;BMP_pressure;BME280_temperature;BME280_humidity;BME280_pressure;Samples;Min_cycle;Max_cycle;Signal;HPM_P1;HPM_P2
2021/12/26 00:00:33;;;;;;;14.38;6.95;;;;;;;4.93;56.19;98563.59;4450982;32;33372;-84
2021/12/26 00:03:01;;;;;;;12.52;6.95;;;;;;;4.81;56.44;98563.25;4465787;32;34812;-85
2021/12/26 00:05:32;;;;;;;14.35;6.87;;;;;;;5.47;54.95;98554.59;4464883;32;34986;-85
2021/12/26 00:08:00;;;;;;;11.20;6.43;;;;;;;4.94;55.72;98560.19;4465885;32;33565;-83
2021/12/26 00:10:28;;;;;;;11.10;7.03;;;;;;;3.75;58.60;98575.72;4453461;32;33787;-87
2021/12/26 00:12:57;;;;;;;12.40;7.37;;;;;;;3.61;59.65;98580.41;4456295;32;34781;-82
2021/12/26 00:15:25;;;;;;;15.57;7.75;;;;;;;4.53;57.69;98553.97;4454075;32;35181;-82
2021/12/26 00:17:53;;;;;;;13.55;7.03;;;;;;;4.00;58.09;98559.34;4465257;32;34204;-82
2021/12/26 00:20:20;;;;;;;11.50;7.55;;;;;;;4.13;58.21;98556.31;4460085;32;33067;-82
2021/12/26 00:22:48;;;;;;;10.63;7.12;;;;;;;4.14;58.08;98557.19;4451034;32;33902;-81
2021/12/26 00:25:16;;;;;;;15.43;6.82;;;;;;;4.58;57.13;98560.97;4439315;32;33404;-83
2021/12/26 00:27:44;;;;;;;14.73;7.95;;;;;;;4.95;55.42;98563.59;4451746;32;33298;-83
2021/12/26 00:30:16;;;;;;;14.13;7.45;;;;;;;5.71;53.99;98562.84;4438577;32;33425;-81
2021/12/26 00:32:47;;;;;;;10.02;6.55;;;;;;;5.18;55.52;98559.91;4434589;32;32755;-84
2021/12/26 00:35:16;;;;;;;14.70;6.53;;;;;;;4.50;56.35;98566.72;4463777;32;34015;-84
2021/12/26 00:37:45;;;;;;;11.23;6.28;;;;;;;4.49;56.81;98564.97;4452130;32;34506;-83
2021/12/26 00:40:15;;;;;;;10.82;6.80;;;;;;;4.19;57.55;98568.44;4452171;32;34344;-84
2021/12/26 00:42:42;;;;;;;11.02;6.50;;;;;;;5.11;55.03;98564.03;4450999;32;34752;-81
2021/12/26 00:45:10;;;;;;;13.75;6.68;;;;;;;4.81;56.07;98564.12;4458418;32;34127;-81
2021/12/26 00:47:41;;;;;;;11.55;6.10;;;;;;;4.24;57.32;98568.56;4452208;32;34671;-83
2021/12/26 00:50:11;;;;;;;11.15;6.12;;;;;;;4.05;57.91;98572.28;4475978;32;33226;-85
2021/12/26 00:52:39;;;;;;;9.88;6.03;;;;;;;4.18;57.92;98559.00;4480805;32;34609;-84
2021/12/26 00:55:09;;;;;;;10.52;5.97;;;;;;;3.96;57.65;98566.91;4482134;32;35108;-86
2021/12/26 00:57:37;;;;;;;12.32;7.40;;;;;;;4.08;58.17;98577.50;4482202;32;34899;-84
2021/12/26 01:00:08;;;;;;;12.45;6.75;;;;;;;4.47;57.33;98576.88;4480381;32;33378;-86
2021/12/26 01:02:36;;;;;;;16.15;6.82;;;;;;;4.04;58.22;98574.00;4480163;32;33197;-83
2021/12/26 01:05:07;;;;;;;10.57;6.20;;;;;;;4.63;56.42;98576.50;4482753;32;35087;-83
2021/12/26 01:07:53;;;;;;;11.82;6.07;;;;;;;4.23;58.30;98575.37;4480901;32;35110;-83
2021/12/26 01:10:23;;;;;;;;;;;;;;;4.23;57.84;98585.66;4481944;32;33680;-83
2021/12/26 01:12:52;;;;;;;14.23;5.62;;;;;;;3.51;59.90;98577.50;4482210;32;34167;-88
2021/12/26 01:15:23;;;;;;;10.13;5.72;;;;;;;3.59;59.44;98587.16;4481599;32;34909;-83
2021/12/26 01:17:55;;;;;;;10.77;5.50;;;;;;;3.92;58.57;98572.78;4481872;32;33891;-83
2021/12/26 01:20:55;;;;;;;11.35;5.93;;;;;;;3.51;60.04;98580.06;4468654;32;33556;-83
2021/12/26 01:23:20;;;;;;;11.63;5.95;;;;;;;4.70;57.19;98569.78;4481733;32;33961;-83
2021/12/26 01:25:49;;;;;;;8.77;5.37;;;;;;;5.04;54.96;98577.56;4483022;32;33740;-83
2021/12/26 01:28:18;;;;;;;10.73;5.18;;;;;;;5.51;53.61;98574.41;4483045;32;33858;-84
2021/12/26 01:30:47;;;;;;;11.85;5.40;;;;;;;5.44;53.86;98583.66;4484013;32;34281;-83
2021/12/26 01:33:16;;;;;;;8.85;5.30;;;;;;;5.58;53.78;98581.41;4483153;32;33958;-83
2021/12/26 01:35:44;;;;;;;7.87;4.97;;;;;;;5.25;54.08;98586.62;4483829;32;34197;-83
2021/12/26 01:38:14;;;;;;;11.20;4.20;;;;;;;5.78;52.79;98590.44;4465200;32;33990;-87
2021/12/26 01:40:45;;;;;;;8.82;5.05;;;;;;;4.49;55.42;98586.38;4484053;32;33620;-83
2021/12/26 01:43:15;;;;;;;10.35;4.68;;;;;;;4.47;56.27;98590.63;4483617;32;34677;-84
2021/12/26 01:45:43;;;;;;;7.93;5.03;;;;;;;4.62;55.86;98592.69;4482776;32;34034;-87
2021/12/26 01:48:12;;;;;;;8.32;4.93;;;;;;;4.14;57.03;98600.78;4482196;32;34523;-87
2021/12/26 01:50:42;;;;;;;9.95;4.90;;;;;;;3.71;58.46;98586.66;4483659;32;33459;-85
2021/12/26 01:53:10;;;;;;;10.05;5.35;;;;;;;4.27;57.04;98579.78;4483516;32;33842;-84
2021/12/26 01:55:42;;;;;;;10.43;5.62;;;;;;;4.95;54.88;98582.44;4482797;31;34718;-84
2021/12/26 01:58:16;;;;;;;8.52;5.28;;;;;;;4.43;56.23;98582.75;4482716;32;34818;-84
2021/12/26 02:00:49;;;;;;;11.45;5.40;;;;;;;4.59;55.90;98582.38;4481435;32;33820;-84
2021/12/26 02:03:17;;;;;;;12.00;5.60;;;;;;;3.78;57.89;98593.72;4482155;32;33692;-84
2021/12/26 02:05:44;;;;;;;10.77;5.53;;;;;;;3.80;58.62;98586.97;4482557;32;34026;-83
2021/12/26 02:08:12;;;;;;;9.43;5.47;;;;;;;4.60;55.72;98578.97;4482663;32;33224;-84
2021/12/26 02:10:41;;;;;;;10.23;5.62;;;;;;;5.66;53.68;98579.88;4483166;32;33329;-86
2021/12/26 02:13:08;;;;;;;8.63;5.25;;;;;;;5.56;53.11;98565.06;4483694;32;33502;-84
2021/12/26 02:15:36;;;;;;;12.23;5.62;;;;;;;4.85;55.18;98567.66;4482353;32;34136;-88
2021/12/26 02:18:06;;;;;;;13.25;6.18;;;;;;;5.07;54.14;98564.78;4468508;32;34630;-84
2021/12/26 02:28:46;;;;;;;11.25;6.22;;;;;;;5.59;53.04;98575.44;4482240;32;34675;-87
2021/12/26 02:31:16;;;;;;;12.00;6.35;;;;;;;5.78;52.55;98569.88;4481094;32;33286;-85
2021/12/26 02:33:44;;;;;;;9.45;5.95;;;;;;;6.36;51.53;98574.53;4482978;32;33390;-84
2021/12/26 02:36:11;;;;;;;13.43;5.90;;;;;;;5.71;52.82;98574.84;4469441;32;34176;-86
2021/12/26 02:38:39;;;;;;;12.98;6.20;;;;;;;6.66;50.43;98567.37;4482349;32;33864;-87
2021/12/26 02:41:06;;;;;;;9.60;5.80;;;;;;;7.22;49.15;98574.38;4483387;32;34004;-84
2021/12/26 02:43:36;;;;;;;11.45;5.80;;;;;;;7.44;48.25;98575.63;4483246;32;34325;-84
2021/12/26 02:46:06;;;;;;;8.18;5.62;;;;;;;7.74;47.33;98572.62;4481651;32;33896;-87
2021/12/26 02:48:35;;;;;;;8.63;5.50;;;;;;;7.16;47.97;98564.88;4477537;32;33914;-84
2021/12/26 02:51:04;;;;;;;9.55;4.80;;;;;;;6.89;48.48;98567.81;4468280;32;33961;-84
2021/12/26 02:53:32;;;;;;;7.68;4.80;;;;;;;8.02;45.46;98561.81;4478610;32;34760;-85
2021/12/26 02:56:00;;;;;;;8.70;4.93;;;;;;;8.15;45.25;98560.28;4483802;32;34620;-87
2021/12/26 02:58:28;;;;;;;10.13;4.65;;;;;;;8.32;44.75;98562.19;4468583;32;34646;-83
2021/12/26 03:00:59;;;;;;;8.07;4.22;;;;;;;7.89;45.40;98565.09;4482422;32;33519;-83
2021/12/26 03:03:30;;;;;;;9.10;4.70;;;;;;;8.15;44.75;98557.69;4483399;32;33464;-84
2021/12/26 03:06:02;;;;;;;8.65;4.18;;;;;;;6.90;46.68;98566.13;4456271;32;34338;-86
2021/12/26 03:08:30;;;;;;;6.47;3.80;;;;;;;8.70;43.05;98568.69;4482952;32;33680;-83
2021/12/26 03:10:59;;;;;;;6.28;3.70;;;;;;;8.67;43.17;98565.19;4480935;32;32954;-86
2021/12/26 03:13:27;;;;;;;8.50;4.12;;;;;;;8.05;43.99;98566.16;4481852;32;33481;-86
2021/12/26 03:15:55;;;;;;;7.15;3.45;;;;;;;8.85;42.87;98562.81;4482456;32;33805;-85
2021/12/26 03:18:23;;;;;;;6.57;3.58;;;;;;;8.94;41.85;98567.19;4481463;32;33795;-84
2021/12/26 03:20:51;;;;;;;6.12;3.40;;;;;;;9.11;41.22;98565.63;4482657;32;34143;-84
2021/12/26 03:23:24;;;;;;;6.28;3.25;;;;;;;8.74;41.95;98561.84;4469051;32;32981;-85
2021/12/26 03:25:59;;;;;;;6.80;3.45;;;;;;;9.22;41.38;98570.91;4483356;32;33808;-84
2021/12/26 03:28:29;;;;;;;6.35;3.00;;;;;;;8.53;42.29;98571.09;4482459;32;33838;-84
2021/12/26 03:30:57;;;;;;;7.62;3.05;;;;;;;7.83;42.73;98566.72;4480784;32;34282;-84
2021/12/26 03:33:28;;;;;;;7.25;3.05;;;;;;;7.24;44.58;98581.31;4483267;32;34811;-87
2021/12/26 03:35:56;;;;;;;6.03;3.55;;;;;;;7.29;44.05;98559.03;4481830;32;35079;-86
2021/12/26 03:38:24;;;;;;;5.35;3.03;;;;;;;6.64;46.12;98570.81;4480841;32;33765;-84
2021/12/26 03:40:56;;;;;;;5.28;3.53;;;;;;;7.83;43.85;98566.72;4481676;32;34203;-84
2021/12/26 03:43:24;;;;;;;6.65;3.50;;;;;;;8.67;42.16;98560.91;4480591;32;34600;-86
2021/12/26 03:45:55;;;;;;;6.25;3.30;;;;;;;9.09;41.46;98564.78;4481500;32;34352;-87
2021/12/26 03:48:25;;;;;;;7.78;3.80;;;;;;;8.13;42.57;98559.38;4482171;32;36173;-87
2021/12/26 03:50:54;;;;;;;6.43;3.40;;;;;;;8.47;42.18;98559.81;4481698;31;34325;-82
2021/12/26 03:53:22;;;;;;;6.18;3.65;;;;;;;9.18;41.22;98554.50;4464085;32;33189;-88
2021/12/26 03:55:50;;;;;;;5.90;3.33;;;;;;;9.36;41.12;98547.75;4481397;32;33069;-83
2021/12/26 03:58:18;;;;;;;5.93;3.37;;;;;;;9.50;40.74;98551.28;4482587;32;34680;-83
2021/12/26 04:00:48;;;;;;;6.18;3.65;;;;;;;8.89;41.54;98561.13;4480432;32;33279;-84
2021/12/26 04:03:16;;;;;;;6.15;3.70;;;;;;;8.38;41.73;98557.16;4494155;31;33387;-84
2021/12/26 04:05:44;;;;;;;5.57;3.05;;;;;;;8.57;41.40;98553.06;4468996;32;34349;-84
2021/12/26 04:08:12;;;;;;;6.03;3.85;;;;;;;8.36;41.74;98558.78;4482584;32;33431;-86
2021/12/26 04:10:40;;;;;;;5.30;3.30;;;;;;;8.06;42.17;98560.16;4482733;32;33396;-85
2021/12/26 04:13:08;;;;;;;4.82;2.92;;;;;;;8.76;41.10;98553.25;4468411;32;32914;-86
2021/12/26 04:15:35;;;;;;;6.10;3.37;;;;;;;8.80;41.40;98561.03;4483106;32;34174;-86
2021/12/26 04:18:04;;;;;;;5.57;3.15;;;;;;;9.32;40.44;98556.31;4482005;32;33934;-83
2021/12/26 04:20:33;;;;;;;6.35;3.35;;;;;;;9.18;39.90;98559.69;4481175;32;33332;-84
2021/12/26 04:23:00;;;;;;;5.80;3.28;;;;;;;8.92;40.13;98556.84;4483136;32;34007;-88
2021/12/26 04:25:28;;;;;;;5.32;3.05;;;;;;;8.22;41.06;98561.19;4481505;32;34238;-83
2021/12/26 04:27:56;;;;;;;4.40;2.60;;;;;;;8.64;40.36;98560.03;4481694;32;34751;-83
2021/12/26 04:30:25;;;;;;;5.12;2.60;;;;;;;9.39;39.64;98563.28;4481601;32;32924;-84
2021/12/26 04:32:52;;;;;;;5.18;2.37;;;;;;;9.71;39.40;98561.78;4480564;32;34745;-87
2021/12/26 04:35:21;;;;;;;5.53;2.80;;;;;;;9.56;39.04;98569.47;4482666;32;34187;-85
2021/12/26 04:37:48;;;;;;;6.03;2.50;;;;;;;9.54;38.49;98572.88;4481345;32;34093;-84
2021/12/26 04:40:17;;;;;;;4.40;2.22;;;;;;;9.59;37.90;98577.25;4482622;32;33782;-84
2021/12/26 04:42:48;;;;;;;4.53;2.40;;;;;;;9.67;38.15;98580.75;4481068;32;34605;-84
2021/12/26 04:45:17;;;;;;;4.78;2.60;;;;;;;9.68;37.78;98577.28;4468112;32;33836;-83
2021/12/26 04:47:52;;;;;;;5.57;2.50;;;;;;;9.89;37.62;98586.09;4479880;32;33922;-84
2021/12/26 04:50:22;;;;;;;5.85;2.90;;;;;;;10.16;36.98;98586.22;4480250;32;33154;-84
2021/12/26 04:52:51;;;;;;;6.40;2.53;;;;;;;9.62;38.11;98592.81;4481009;32;34148;-82
2021/12/26 04:55:25;;;;;;;5.57;2.72;;;;;;;9.31;38.58;98596.84;4482321;32;34830;-84
2021/12/26 04:57:53;;;;;;;4.95;2.50;;;;;;;10.03;37.51;98597.34;4481209;32;33355;-84
2021/12/26 05:00:24;;;;;;;5.25;2.47;;;;;;;10.33;37.16;98596.69;4468031;32;32869;-87
2021/12/26 05:02:52;;;;;;;5.12;2.65;;;;;;;10.25;36.99;98593.19;4468112;32;33214;-84
2021/12/26 05:05:20;;;;;;;4.45;2.47;;;;;;;9.39;38.73;98602.94;4468253;32;33562;-87
2021/12/26 05:07:48;;;;;;;6.22;3.03;;;;;;;9.92;38.44;98604.19;4481882;32;34074;-88
2021/12/26 05:10:20;;;;;;;5.57;3.00;;;;;;;10.21;37.38;98600.06;4480085;32;33194;-87
2021/12/26 05:12:48;;;;;;;5.05;2.60;;;;;;;10.01;37.94;98601.69;4466754;32;34772;-86
2021/12/26 05:15:18;;;;;;;5.82;2.75;;;;;;;10.31;37.24;98595.81;4480279;32;33844;-86
2021/12/26 05:17:45;;;;;;;6.80;3.08;;;;;;;10.43;37.12;98605.38;4480079;32;34842;-84
2021/12/26 05:20:13;;;;;;;5.43;2.83;;;;;;;10.32;37.04;98607.91;4479897;32;33719;-88
2021/12/26 05:22:41;;;;;;;5.07;2.62;;;;;;;10.67;36.44;98615.81;4467998;32;33528;-84
2021/12/26 05:25:09;;;;;;;6.25;2.97;;;;;;;10.62;36.43;98612.38;4480605;32;35023;-88
2021/12/26 05:27:37;;;;;;;5.90;3.12;;;;;;;10.62;36.71;98619.28;4480460;32;33655;-88
2021/12/26 05:30:08;;;;;;;5.65;2.70;;;;;;;11.01;36.55;98620.25;4480576;32;33154;-85
2021/12/26 05:32:36;;;;;;;7.07;2.75;;;;;;;11.44;35.71;98629.84;4481614;32;33942;-84
2021/12/26 05:35:04;;;;;;;5.45;2.40;;;;;;;10.79;36.00;98627.09;4482132;32;33888;-87
2021/12/26 05:37:31;;;;;;;4.75;2.28;;;;;;;10.94;35.66;98629.75;4479396;32;34376;-88
2021/12/26 05:40:02;;;;;;;4.47;2.28;;;;;;;10.90;35.83;98635.78;4481643;32;33408;-84
2021/12/26 05:42:31;;;;;;;4.82;2.25;;;;;;;10.61;36.19;98639.16;4464865;32;34582;-87
2021/12/26 05:44:59;;;;;;;7.50;2.50;;;;;;;10.74;35.29;98640.06;4467039;32;33870;-84
2021/12/26 05:47:27;;;;;;;5.75;2.08;;;;;;;10.55;35.49;98636.53;4481289;32;34322;-84
2021/12/26 05:49:55;;;;;;;6.15;2.30;;;;;;;10.37;35.77;98646.78;4480246;32;33226;-87
2021/12/26 05:52:24;;;;;;;4.37;2.33;;;;;;;10.16;36.40;98640.62;4481243;32;33915;-88
2021/12/26 05:54:52;;;;;;;5.65;2.70;;;;;;;10.22;35.61;98643.22;4480015;32;34241;-85
2021/12/26 05:57:21;;;;;;;4.75;2.03;;;;;;;10.29;36.12;98643.31;4467094;32;33374;-84
2021/12/26 05:59:49;;;;;;;3.70;1.92;;;;;;;10.37;34.94;98646.78;4480462;32;33473;-87
2021/12/26 06:02:17;;;;;;;5.00;2.05;;;;;;;10.65;35.22;98653.00;4482082;32;35366;-83
2021/12/26 06:04:47;;;;;;;4.72;1.90;;;;;;;10.98;34.79;98654.81;4483548;32;34211;-88
2021/12/26 06:07:15;;;;;;;5.37;2.17;;;;;;;10.65;34.97;98653.84;4483592;32;34491;-87
2021/12/26 06:09:43;;;;;;;3.15;1.73;;;;;;;10.97;34.18;98655.69;4483828;32;34236;-88
2021/12/26 06:12:11;;;;;;;4.43;1.70;;;;;;;10.84;33.66;98653.94;4483301;32;33832;-84
2021/12/26 06:14:39;;;;;;;4.72;2.10;;;;;;;10.49;33.69;98662.41;4482216;32;35046;-88
2021/12/26 06:17:06;;;;;;;5.40;2.55;;;;;;;10.40;34.30;98670.16;4482364;32;34140;-84
2021/12/26 06:19:35;;;;;;;5.37;1.77;;;;;;;10.75;33.89;98664.25;4482986;32;32741;-84
2021/12/26 06:22:07;;;;;;;3.85;1.70;;;;;;;10.84;33.84;98669.50;4482599;32;33596;-84
2021/12/26 06:24:36;;;;;;;3.37;1.60;;;;;;;10.18;33.54;98671.69;4483517;32;34514;-83
2021/12/26 06:27:05;;;;;;;5.65;2.10;;;;;;;10.55;33.00;98672.81;4483566;32;33637;-82
2021/12/26 06:29:37;;;;;;;4.53;2.30;;;;;;;10.23;33.10;98676.06;4482207;32;33425;-87
2021/12/26 06:32:06;;;;;;;4.43;2.03;;;;;;;10.20;32.85;98681.22;4483094;32;33498;-84
2021/12/26 06:34:36;;;;;;;6.75;2.70;;;;;;;10.51;32.87;98675.37;4482715;31;32839;-85
2021/12/26 06:37:08;;;;;;;7.90;2.15;;;;;;;10.58;33.10;98684.94;4482772;32;33064;-87
2021/12/26 06:39:48;;;;;;;5.93;2.17;;;;;;;11.32;32.51;98678.25;4483605;32;32123;-87
2021/12/26 06:42:30;;;;;;;6.03;1.98;;;;;;;11.24;32.89;98679.97;4482633;32;33760;-88
2021/12/26 06:45:19;;;;;;;3.72;1.87;;;;;;;11.38;32.49;98681.72;4482414;32;32794;-88
2021/12/26 06:47:52;;;;;;;3.60;2.22;;;;;;;10.93;33.66;98693.72;4483780;32;34330;-85
2021/12/26 06:50:20;;;;;;;4.53;2.45;;;;;;;10.76;34.29;98694.50;4482095;32;33572;-86
2021/12/26 06:52:48;;;;;;;3.90;1.95;;;;;;;10.68;33.78;98697.94;4481523;32;33964;-84
2021/12/26 06:55:16;;;;;;;6.80;2.50;;;;;;;10.99;33.73;98695.47;4481745;31;34863;-84
2021/12/26 06:57:43;;;;;;;6.18;2.40;;;;;;;10.58;33.71;98703.06;4483288;32;33528;-83
2021/12/26 07:00:13;;;;;;;5.07;2.10;;;;;;;10.51;31.87;98696.97;4481290;32;34418;-84
2021/12/26 07:02:42;;;;;;;6.07;2.42;;;;;;;10.12;30.02;98698.44;4482752;32;34039;-88
2021/12/26 07:05:12;;;;;;;6.28;3.53;;;;;;;10.07;30.82;98696.66;4469461;32;35109;-84
2021/12/26 07:07:41;;;;;;;7.35;2.78;;;;;;;10.17;30.50;98701.06;4482817;32;34206;-84
2021/12/26 07:10:10;;;;;;;5.03;2.28;;;;;;;10.62;31.28;98705.69;4482899;31;34104;-87
2021/12/26 07:12:37;;;;;;;5.68;2.08;;;;;;;10.87;32.89;98705.78;4482908;32;33855;-83
2021/12/26 07:15:09;;;;;;;6.20;2.75;;;;;;;11.07;32.62;98708.47;4483249;32;35089;-86
2021/12/26 07:17:40;;;;;;;5.95;2.30;;;;;;;11.35;32.27;98706.81;4483070;32;33744;-83
2021/12/26 07:20:09;;;;;;;4.47;2.15;;;;;;;11.06;32.62;98712.81;4481791;32;33258;-83
2021/12/26 07:22:40;;;;;;;5.65;2.37;;;;;;;11.20;32.10;98705.91;4481743;32;34879;-81
2021/12/26 07:25:08;;;;;;;4.45;1.80;;;;;;;10.94;32.71;98717.91;4480447;31;34666;-83
2021/12/26 07:27:37;;;;;;;4.43;2.00;;;;;;;11.18;31.99;98717.16;4480895;32;33931;-84
2021/12/26 07:30:07;;;;;;;4.80;2.00;;;;;;;11.41;32.37;98715.47;4483166;32;34303;-83
2021/12/26 07:32:34;;;;;;;5.45;2.53;;;;;;;11.42;32.29;98717.22;4481475;32;35459;-85
2021/12/26 07:35:03;;;;;;;7.05;3.62;;;;;;;11.03;30.69;98717.12;4483687;32;33888;-85
2021/12/26 07:37:30;;;;;;;6.93;2.90;;;;;;;10.88;31.23;98718.78;4482915;31;33256;-84
2021/12/26 07:39:58;;;;;;;6.97;3.47;;;;;;;11.20;31.12;98725.78;4482159;32;31920;-84
2021/12/26 07:42:26;;;;;;;6.18;3.17;;;;;;;10.92;30.90;98725.72;4463841;32;33146;-85
2021/12/26 07:45:09;;;;;;;6.35;3.17;;;;;;;10.80;30.47;98715.28;4481665;32;32583;-83
2021/12/26 07:47:39;;;;;;;6.05;3.25;;;;;;;10.59;30.03;98718.63;4483542;32;35069;-82
2021/12/26 07:50:08;;;;;;;4.70;2.45;;;;;;;10.87;29.83;98722.25;4482940;32;34500;-84
2021/12/26 07:52:52;;;;;;;5.97;2.40;;;;;;;11.10;29.46;98716.25;4482823;31;32719;-86
2021/12/26 07:55:39;;;;;;;9.65;2.90;;;;;;;11.10;30.01;98719.72;4481765;32;36792;-83
2021/12/26 07:58:21;;;;;;;5.87;2.17;;;;;;;11.14;29.18;98731.00;4481050;32;33836;-85
2021/12/26 08:01:03;;;;;;;4.80;2.05;;;;;;;11.16;29.38;98735.31;4469697;32;33146;-84
2021/12/26 08:03:36;;;;;;;6.93;2.10;;;;;;;10.63;30.09;98735.06;4481913;32;33592;-86
2021/12/26 08:06:08;;;;;;;5.82;2.50;;;;;;;10.63;27.25;98733.34;4481095;32;35947;-82
2021/12/26 08:08:38;;;;;;;6.97;2.47;;;;;;;11.00;26.94;98730.94;4483131;32;33787;-82
2021/12/26 08:11:06;;;;;;;10.52;5.32;;;;;;;10.01;28.97;98730.31;4483207;32;33084;-84
2021/12/26 08:13:35;;;;;;;10.77;5.25;;;;;;;9.94;29.33;98739.72;4481150;32;34028;-87
2021/12/26 08:16:04;;;;;;;9.98;4.85;;;;;;;9.61;29.63;98733.38;4481200;32;34117;-83
2021/12/26 08:18:32;;;;;;;8.27;4.75;;;;;;;8.67;30.63;98741.78;4482671;32;34093;-86
2021/12/26 08:21:00;;;;;;;6.15;2.53;;;;;;;8.35;31.66;98727.53;4468636;32;33373;-87
2021/12/26 08:23:27;;;;;;;7.40;4.10;;;;;;;9.45;31.07;98726.34;4482620;32;34766;-83
2021/12/26 08:25:55;;;;;;;5.57;3.12;;;;;;;10.05;29.57;98727.75;4481402;32;34193;-83
2021/12/26 08:28:23;;;;;;;5.53;2.30;;;;;;;9.80;29.00;98731.84;4481663;32;33863;-83
2021/12/26 08:30:51;;;;;;;5.07;2.90;;;;;;;10.58;28.46;98732.44;4482950;32;32280;-86
2021/12/26 08:33:18;;;;;;;5.50;2.70;;;;;;;10.61;28.21;98734.19;4467156;32;34748;-85
2021/12/26 08:35:47;;;;;;;5.80;3.03;;;;;;;10.71;26.73;98742.00;4481024;32;34093;-82
2021/12/26 08:38:16;;;;;;;5.75;2.80;;;;;;;10.44;28.44;98731.50;4480971;32;34532;-84
2021/12/26 08:40:44;;;;;;;4.10;2.58;;;;;;;10.46;27.90;98747.94;4482007;32;34357;-80
2021/12/26 08:43:11;;;;;;;5.40;2.83;;;;;;;10.63;27.89;98743.69;4481058;32;33940;-84
2021/12/26 08:45:39;;;;;;;5.20;2.62;;;;;;;10.36;28.01;98744.41;4482345;32;34157;-84
2021/12/26 08:48:06;;;;;;;6.82;3.25;;;;;;;9.35;28.58;98753.81;4482595;32;33529;-85
2021/12/26 08:50:37;;;;;;;6.50;2.95;;;;;;;9.33;28.71;98757.25;4481716;32;33620;-83
2021/12/26 08:53:05;;;;;;;8.50;3.60;;;;;;;8.85;29.98;98755.81;4482372;32;35047;-86
2021/12/26 08:55:34;;;;;;;7.45;3.20;;;;;;;9.74;29.74;98743.03;4481073;32;36349;-84
2021/12/26 08:58:05;;;;;;;10.90;3.78;;;;;;;9.87;28.67;98744.00;4482143;32;34612;-86
2021/12/26 09:00:36;;;;;;;8.00;3.60;;;;;;;9.86;28.69;98749.16;4468225;32;33619;-85
2021/12/26 09:03:04;;;;;;;8.15;4.53;;;;;;;9.76;29.15;98743.03;4477291;32;32690;-87
2021/12/26 09:05:31;;;;;;;9.15;4.55;;;;;;;9.93;29.77;98743.19;4482438;32;33777;-83
2021/12/26 09:08:01;;;;;;;8.85;5.07;;;;;;;9.31;28.18;98741.72;4482408;32;33443;-83
2021/12/26 09:10:29;;;;;;;7.53;4.03;;;;;;;8.87;28.53;98743.78;4480563;32;33078;-83
2021/12/26 09:12:57;;;;;;;7.82;4.30;;;;;;;8.47;29.43;98732.91;4467350;32;33904;-83
2021/12/26 09:15:25;;;;;;;7.85;4.20;;;;;;;7.95;31.23;98732.06;4480306;32;34032;-80
2021/12/26 09:17:52;;;;;;;7.53;3.58;;;;;;;8.45;30.54;98737.19;4482170;32;34100;-83
2021/12/26 09:20:21;;;;;;;9.35;4.30;;;;;;;8.21;29.92;98735.06;4480387;32;33050;-85
2021/12/26 09:22:48;;;;;;;5.72;3.03;;;;;;;8.68;29.71;98738.38;4480660;32;34079;-83
2021/12/26 09:25:16;;;;;;;9.27;4.07;;;;;;;8.91;27.41;98730.91;4480661;32;33945;-85
2021/12/26 09:27:43;;;;;;;8.23;4.10;;;;;;;9.09;27.92;98732.84;4469756;32;34255;-85
2021/12/26 09:30:12;;;;;;;8.93;3.65;;;;;;;8.53;30.12;98738.16;4472363;32;33239;-83
2021/12/26 09:32:39;;;;;;;11.88;5.00;;;;;;;9.22;29.53;98732.12;4482235;32;33625;-82
2021/12/26 09:35:07;;;;;;;8.00;3.85;;;;;;;9.52;28.49;98725.56;4482080;32;34648;-82
2021/12/26 09:37:35;;;;;;;7.72;3.83;;;;;;;9.63;28.57;98726.53;4481746;32;33789;-85
2021/12/26 09:40:04;;;;;;;7.47;3.05;;;;;;;9.42;28.55;98729.75;4483149;32;33511;-83
2021/12/26 09:42:33;;;;;;;7.82;3.28;;;;;;;9.77;27.73;98720.59;4479878;32;33867;-82
2021/12/26 09:45:01;;;;;;;6.57;2.67;;;;;;;10.03;28.41;98724.25;4482633;32;33875;-81
2021/12/26 09:47:29;;;;;;;6.12;2.35;;;;;;;8.35;28.72;98732.69;4483836;32;33857;-83
2021/12/26 09:49:57;;;;;;;6.05;2.28;;;;;;;9.29;28.61;98725.31;4482555;32;33328;-81
2021/12/26 09:52:24;;;;;;;7.03;2.80;;;;;;;8.29;27.13;98729.16;4482638;32;33731;-80
2021/12/26 09:54:52;;;;;;;7.12;2.60;;;;;;;7.34;30.42;98720.69;4480948;31;33280;-81
2021/12/26 09:57:19;;;;;;;6.72;3.58;;;;;;;7.80;30.08;98717.19;4483718;32;33896;-80
2021/12/26 09:59:48;;;;;;;9.77;4.78;;;;;;;8.27;30.09;98715.38;4482490;32;33448;-82
2021/12/26 10:02:18;;;;;;;16.92;9.43;;;;;;;8.03;29.94;98721.03;4481536;32;34026;-79
2021/12/26 10:04:49;;;;;;;10.95;5.40;;;;;;;8.21;29.76;98715.28;4483096;32;34033;-81
2021/12/26 10:07:23;;;;;;;7.25;3.15;;;;;;;8.89;28.75;98711.06;4482390;32;33684;-82
2021/12/26 10:09:52;;;;;;;6.15;3.22;;;;;;;8.06;27.57;98715.03;4483043;32;34116;-81
2021/12/26 10:12:21;;;;;;;5.95;2.92;;;;;;;8.35;28.03;98712.91;4481660;32;34968;-81
2021/12/26 10:14:53;;;;;;;5.45;2.92;;;;;;;8.57;26.65;98718.41;4483720;32;35073;-83
2021/12/26 10:17:26;;;;;;;6.68;3.20;;;;;;;8.71;26.77;98712.56;4481299;32;34487;-81
2021/12/26 10:20:06;;;;;;;7.50;3.55;;;;;;;9.15;27.29;98709.62;4482842;32;35029;-85
2021/12/26 10:22:34;;;;;;;5.82;2.58;;;;;;;9.55;27.69;98698.84;4483357;32;33900;-85
2021/12/26 10:25:14;;;;;;;6.57;3.40;;;;;;;10.01;26.96;98705.28;4482154;32;34107;-83
2021/12/26 10:27:45;;;;;;;10.10;6.62;;;;;;;8.49;28.36;98710.56;4483284;32;33913;-83
2021/12/26 10:30:17;;;;;;;7.62;4.05;;;;;;;8.83;27.43;98700.66;4483096;32;32265;-82
2021/12/26 10:32:46;;;;;;;6.37;3.22;;;;;;;9.24;26.79;98683.00;4482866;32;33983;-86
2021/12/26 10:35:17;;;;;;;6.37;3.40;;;;;;;9.00;26.09;98689.63;4483156;32;34057;-85
2021/12/26 10:37:48;;;;;;;7.57;3.10;;;;;;;9.45;27.42;98696.16;4480780;32;35082;-85
2021/12/26 10:40:17;;;;;;;7.57;3.55;;;;;;;8.37;25.99;98695.75;4482704;32;33836;-83
2021/12/26 10:42:48;;;;;;;7.05;3.33;;;;;;;9.48;26.72;98682.37;4481117;32;34536;-82
2021/12/26 10:45:22;;;;;;;7.18;3.25;;;;;;;9.91;26.45;98687.91;4479454;32;33704;-84
2021/12/26 10:47:56;;;;;;;8.73;4.28;;;;;;;10.27;27.04;98686.50;4479980;32;33899;-84
2021/12/26 10:50:26;;;;;;;9.63;3.97;;;;;;;10.14;25.69;98691.53;4481357;32;33310;-85
2021/12/26 10:52:57;;;;;;;7.43;2.78;;;;;;;10.17;25.17;98696.75;4482940;32;34693;-84
2021/12/26 10:55:27;;;;;;;9.07;4.80;;;;;;;9.58;24.84;98689.34;4477784;32;34021;-85
2021/12/26 10:57:55;;;;;;;6.55;3.50;;;;;;;10.01;26.42;98692.31;4483558;32;33758;-85
2021/12/26 11:00:34;;;;;;;7.20;3.90;;;;;;;10.29;25.58;98684.75;4482253;32;33557;-85
2021/12/26 11:03:07;;;;;;;7.68;2.58;;;;;;;10.83;25.29;98678.97;4483114;31;33226;-83
2021/12/26 11:05:40;;;;;;;7.43;3.87;;;;;;;10.73;25.35;98686.72;4468931;32;33466;-86
2021/12/26 11:08:15;;;;;;;6.40;2.80;;;;;;;10.57;26.34;98681.47;4482353;32;34252;-82
2021/12/26 11:10:50;;;;;;;6.80;3.00;;;;;;;10.50;26.41;98690.06;4476081;32;33695;-83
2021/12/26 11:13:29;;;;;;;6.12;3.08;;;;;;;10.09;26.30;98694.97;4483220;32;34098;-83
2021/12/26 11:16:06;;;;;;;7.50;2.58;;;;;;;10.64;25.29;98685.81;4480404;32;34216;-84
2021/12/26 11:18:43;;;;;;;7.20;2.30;;;;;;;10.27;26.63;98686.50;4470649;32;34741;-82
2021/12/26 11:21:13;;;;;;;6.50;2.35;;;;;;;10.88;24.87;98676.41;4482177;32;33556;-85
2021/12/26 11:23:43;;;;;;;6.55;3.20;;;;;;;11.16;26.49;98688.59;4482633;32;33961;-87
2021/12/26 11:26:13;;;;;;;7.53;2.47;;;;;;;10.93;23.88;98685.06;4482856;32;34855;-83
2021/12/26 11:28:44;;;;;;;6.43;2.45;;;;;;;9.46;24.97;98686.66;4481107;32;33761;-87
2021/12/26 11:31:18;;;;;;;4.43;2.17;;;;;;;9.66;26.09;98676.47;4481538;32;33431;-82
2021/12/26 11:33:54;;;;;;;11.57;3.78;;;;;;;10.06;24.67;98672.50;4482831;32;34064;-84
2021/12/26 11:36:23;;;;;;;9.63;2.80;;;;;;;10.07;24.74;98671.62;4478981;32;33806;-83
2021/12/26 11:38:55;;;;;;;52.05;23.02;;;;;;;8.55;26.93;98689.09;4479211;32;33670;-82
2021/12/26 11:42:05;;;;;;;11.05;3.70;;;;;;;10.23;25.58;98680.38;4480135;32;34431;-85
2021/12/26 11:45:07;;;;;;;7.90;3.30;;;;;;;9.24;24.74;98678.72;4481446;32;34613;-86
2021/12/26 11:48:20;;;;;;;6.43;2.78;;;;;;;8.80;25.16;98698.03;4481775;31;34139;-85
2021/12/26 11:51:14;;;;;;;7.03;2.80;;;;;;;10.01;22.77;98694.91;4464226;32;32118;-85
2021/12/26 11:54:04;;;;;;;8.30;3.15;;;;;;;9.58;25.75;98702.28;4482402;32;32566;-83
2021/12/26 11:56:58;;;;;;;;;;;;;;;9.81;26.54;98707.72;4483932;32;33728;-85
2021/12/26 11:59:54;;;;;;;5.95;2.58;;;;;;;10.55;23.88;98690.97;4479589;32;34866;-83